sensor_id;sensor_type;location;lat;lon;timestamp;temperature;humidity
9881;DHT22;4979;51.014;6.678;2023-12-20T00:01:19;8.20;99.90
9881;DHT22;4979;51.014;6.678;2023-12-20T00:03:45;8.00;99.90
9881;DHT22;4979;51.014;6.678;2023-12-20T00:06:10;8.00;99.90
9881;DHT22;4979;51.014;6.678;2023-12-20T00:08:36;8.10;99.90
9881;DHT22;4979;51.014;6.678;2023-12-20T00:11:02;8.10;99.90
9881;DHT22;4979;51.014;6.678;2023-12-20T00:13:27;7.90;99.90
9881;DHT22;4979;51.014;6.678;2023-12-20T00:15:53;8.00;99.90
9881;DHT22;4979;51.014;6.678;2023-12-20T00:18:18;8.10;99.90
9881;DHT22;4979;51.014;6.678;2023-12-20T00:20:44;8.10;99.90
9881;DHT22;4979;51.014;6.678;2023-12-20T00:23:09;8.10;99.90
9881;DHT22;4979;51.014;6.678;2023-12-20T00:25:35;7.90;99.90
9881;DHT22;4979;51.014;6.678;2023-12-20T00:28:01;7.90;99.90
9881;DHT22;4979;51.014;6.678;2023-12-20T00:30:27;8.10;99.90
9881;DHT22;4979;51.014;6.678;2023-12-20T00:32:53;8.10;99.90
9881;DHT22;4979;51.014;6.678;2023-12-20T00:35:18;8.00;99.90
9881;DHT22;4979;51.014;6.678;2023-12-20T00:37:44;7.90;99.90
9881;DHT22;4979;51.014;6.678;2023-12-20T00:40:10;7.80;99.90
9881;DHT22;4979;51.014;6.678;2023-12-20T00:42:36;7.70;99.90
9881;DHT22;4979;51.014;6.678;2023-12-20T00:45:02;7.90;99.90
9881;DHT22;4979;51.014;6.678;2023-12-20T00:47:30;7.80;99.90
9881;DHT22;4979;51.014;6.678;2023-12-20T00:49:55;8.00;99.90
9881;DHT22;4979;51.014;6.678;2023-12-20T00:52:21;8.00;99.90
9881;DHT22;4979;51.014;6.678;2023-12-20T00:54:48;8.00;99.90
9881;DHT22;4979;51.014;6.678;2023-12-20T00:57:14;7.80;99.90
9881;DHT22;4979;51.014;6.678;2023-12-20T00:59:39;7.90;99.90
9881;DHT22;4979;51.014;6.678;2023-12-20T01:02:05;7.80;99.90
9881;DHT22;4979;51.014;6.678;2023-12-20T01:04:30;7.70;99.90
9881;DHT22;4979;51.014;6.678;2023-12-20T01:06:56;7.90;99.90
9881;DHT22;4979;51.014;6.678;2023-12-20T01:09:21;7.90;99.90
9881;DHT22;4979;51.014;6.678;2023-12-20T01:11:51;7.70;99.90
9881;DHT22;4979;51.014;6.678;2023-12-20T01:14:17;7.70;99.90
9881;DHT22;4979;51.014;6.678;2023-12-20T01:16:43;7.90;99.90
9881;DHT22;4979;51.014;6.678;2023-12-20T01:19:08;7.90;99.90
9881;DHT22;4979;51.014;6.678;2023-12-20T01:21:34;7.80;99.90
9881;DHT22;4979;51.014;6.678;2023-12-20T01:23:59;7.70;99.90
9881;DHT22;4979;51.014;6.678;2023-12-20T01:26:25;7.80;99.90
9881;DHT22;4979;51.014;6.678;2023-12-20T01:28:50;7.90;99.90
9881;DHT22;4979;51.014;6.678;2023-12-20T01:31:16;7.70;99.90
9881;DHT22;4979;51.014;6.678;2023-12-20T01:33:41;7.70;99.90
9881;DHT22;4979;51.014;6.678;2023-12-20T01:36:07;7.70;99.90
9881;DHT22;4979;51.014;6.678;2023-12-20T01:38:33;7.50;99.90
9881;DHT22;4979;51.014;6.678;2023-12-20T01:40:58;7.50;99.90
9881;DHT22;4979;51.014;6.678;2023-12-20T01:43:24;7.50;99.90
9881;DHT22;4979;51.014;6.678;2023-12-20T01:45:50;7.60;99.90
9881;DHT22;4979;51.014;6.678;2023-12-20T01:48:16;7.40;99.90
9881;DHT22;4979;51.014;6.678;2023-12-20T01:50:43;7.40;99.90
9881;DHT22;4979;51.014;6.678;2023-12-20T01:53:10;7.30;99.90
9881;DHT22;4979;51.014;6.678;2023-12-20T01:55:39;7.20;99.90
9881;DHT22;4979;51.014;6.678;2023-12-20T01:58:08;7.00;99.90
9881;DHT22;4979;51.014;6.678;2023-12-20T02:00:35;7.00;99.90
9881;DHT22;4979;51.014;6.678;2023-12-20T02:03:02;7.00;99.90
9881;DHT22;4979;51.014;6.678;2023-12-20T02:05:32;7.00;99.90
9881;DHT22;4979;51.014;6.678;2023-12-20T02:07:58;7.00;99.90
9881;DHT22;4979;51.014;6.678;2023-12-20T02:10:24;7.00;99.90
9881;DHT22;4979;51.014;6.678;2023-12-20T02:12:50;6.90;99.90
9881;DHT22;4979;51.014;6.678;2023-12-20T02:15:15;6.80;99.90
9881;DHT22;4979;51.014;6.678;2023-12-20T02:17:41;6.90;99.90
9881;DHT22;4979;51.014;6.678;2023-12-20T02:20:07;6.80;99.90
9881;DHT22;4979;51.014;6.678;2023-12-20T02:22:33;6.80;99.90
9881;DHT22;4979;51.014;6.678;2023-12-20T02:24:58;6.70;99.90
9881;DHT22;4979;51.014;6.678;2023-12-20T02:27:24;6.60;99.90
9881;DHT22;4979;51.014;6.678;2023-12-20T02:29:50;6.70;99.90
9881;DHT22;4979;51.014;6.678;2023-12-20T02:32:19;6.60;99.90
9881;DHT22;4979;51.014;6.678;2023-12-20T02:34:47;6.60;99.90
9881;DHT22;4979;51.014;6.678;2023-12-20T02:37:13;6.60;99.90
9881;DHT22;4979;51.014;6.678;2023-12-20T02:39:38;6.60;99.90
9881;DHT22;4979;51.014;6.678;2023-12-20T02:42:04;6.70;99.90
9881;DHT22;4979;51.014;6.678;2023-12-20T02:44:29;6.60;99.90
9881;DHT22;4979;51.014;6.678;2023-12-20T02:46:55;6.70;99.90
9881;DHT22;4979;51.014;6.678;2023-12-20T02:49:20;6.80;99.90
9881;DHT22;4979;51.014;6.678;2023-12-20T02:51:46;6.80;99.90
9881;DHT22;4979;51.014;6.678;2023-12-20T02:54:12;6.80;99.90
9881;DHT22;4979;51.014;6.678;2023-12-20T02:56:37;6.70;99.90
9881;DHT22;4979;51.014;6.678;2023-12-20T02:59:03;6.60;99.90
9881;DHT22;4979;51.014;6.678;2023-12-20T03:01:31;6.80;99.90
9881;DHT22;4979;51.014;6.678;2023-12-20T03:03:57;6.80;99.90
9881;DHT22;4979;51.014;6.678;2023-12-20T03:06:23;6.80;99.90
9881;DHT22;4979;51.014;6.678;2023-12-20T03:08:49;6.80;99.90
9881;DHT22;4979;51.014;6.678;2023-12-20T03:11:14;6.80;99.90
9881;DHT22;4979;51.014;6.678;2023-12-20T03:13:40;6.90;99.90
9881;DHT22;4979;51.014;6.678;2023-12-20T03:16:09;6.70;99.90
9881;DHT22;4979;51.014;6.678;2023-12-20T03:18:35;6.70;99.90
9881;DHT22;4979;51.014;6.678;2023-12-20T03:21:01;6.70;99.90
9881;DHT22;4979;51.014;6.678;2023-12-20T03:23:26;6.70;99.90
9881;DHT22;4979;51.014;6.678;2023-12-20T03:25:52;6.80;99.90
9881;DHT22;4979;51.014;6.678;2023-12-20T03:28:18;6.90;99.90
9881;DHT22;4979;51.014;6.678;2023-12-20T03:30:44;6.80;99.90
9881;DHT22;4979;51.014;6.678;2023-12-20T03:33:10;6.70;99.90
9881;DHT22;4979;51.014;6.678;2023-12-20T03:35:35;6.70;99.90
9881;DHT22;4979;51.014;6.678;2023-12-20T03:38:01;6.70;99.90
9881;DHT22;4979;51.014;6.678;2023-12-20T03:40:27;6.80;99.90
9881;DHT22;4979;51.014;6.678;2023-12-20T03:42:52;6.80;99.90
9881;DHT22;4979;51.014;6.678;2023-12-20T03:45:18;6.90;99.90
9881;DHT22;4979;51.014;6.678;2023-12-20T03:47:43;6.90;99.90
9881;DHT22;4979;51.014;6.678;2023-12-20T03:50:09;6.90;99.90
9881;DHT22;4979;51.014;6.678;2023-12-20T03:52:34;6.80;99.90
9881;DHT22;4979;51.014;6.678;2023-12-20T03:55:00;6.80;99.90
9881;DHT22;4979;51.014;6.678;2023-12-20T03:57:25;6.80;99.90
9881;DHT22;4979;51.014;6.678;2023-12-20T03:59:51;6.70;99.90
9881;DHT22;4979;51.014;6.678;2023-12-20T04:02:17;6.90;99.90
9881;DHT22;4979;51.014;6.678;2023-12-20T04:04:43;6.60;99.90
9881;DHT22;4979;51.014;6.678;2023-12-20T04:07:09;6.80;99.90
9881;DHT22;4979;51.014;6.678;2023-12-20T04:09:34;6.60;99.90
9881;DHT22;4979;51.014;6.678;2023-12-20T04:12:00;6.60;99.90
9881;DHT22;4979;51.014;6.678;2023-12-20T04:14:25;6.60;99.90
9881;DHT22;4979;51.014;6.678;2023-12-20T04:16:51;6.60;99.90
9881;DHT22;4979;51.014;6.678;2023-12-20T04:19:16;6.80;99.90
9881;DHT22;4979;51.014;6.678;2023-12-20T04:21:42;6.60;99.90
9881;DHT22;4979;51.014;6.678;2023-12-20T04:24:07;6.50;99.90
9881;DHT22;4979;51.014;6.678;2023-12-20T04:26:33;6.50;99.90
9881;DHT22;4979;51.014;6.678;2023-12-20T04:28:59;6.50;99.90
9881;DHT22;4979;51.014;6.678;2023-12-20T04:31:24;6.50;99.90
9881;DHT22;4979;51.014;6.678;2023-12-20T04:33:50;6.60;99.90
9881;DHT22;4979;51.014;6.678;2023-12-20T04:36:15;6.50;99.90
9881;DHT22;4979;51.014;6.678;2023-12-20T04:38:41;6.40;99.90
9881;DHT22;4979;51.014;6.678;2023-12-20T04:41:06;6.50;99.90
9881;DHT22;4979;51.014;6.678;2023-12-20T04:43:32;6.30;99.90
9881;DHT22;4979;51.014;6.678;2023-12-20T04:45:57;6.50;99.90
9881;DHT22;4979;51.014;6.678;2023-12-20T04:48:23;6.50;99.90
9881;DHT22;4979;51.014;6.678;2023-12-20T04:50:49;6.40;99.90
9881;DHT22;4979;51.014;6.678;2023-12-20T04:53:14;6.30;99.90
9881;DHT22;4979;51.014;6.678;2023-12-20T04:55:40;6.50;99.90
9881;DHT22;4979;51.014;6.678;2023-12-20T04:58:05;6.30;99.90
9881;DHT22;4979;51.014;6.678;2023-12-20T05:00:31;6.30;99.90
9881;DHT22;4979;51.014;6.678;2023-12-20T05:02:56;6.40;99.90
9881;DHT22;4979;51.014;6.678;2023-12-20T05:05:22;6.40;99.90
9881;DHT22;4979;51.014;6.678;2023-12-20T05:07:47;6.30;99.90
9881;DHT22;4979;51.014;6.678;2023-12-20T05:10:13;6.30;99.90
9881;DHT22;4979;51.014;6.678;2023-12-20T05:12:39;6.40;99.90
9881;DHT22;4979;51.014;6.678;2023-12-20T05:15:06;6.20;99.90
9881;DHT22;4979;51.014;6.678;2023-12-20T05:17:32;6.30;99.90
9881;DHT22;4979;51.014;6.678;2023-12-20T05:19:57;6.30;99.90
9881;DHT22;4979;51.014;6.678;2023-12-20T05:22:23;6.20;99.90
9881;DHT22;4979;51.014;6.678;2023-12-20T05:24:48;6.20;99.90
9881;DHT22;4979;51.014;6.678;2023-12-20T05:27:14;6.30;99.90
9881;DHT22;4979;51.014;6.678;2023-12-20T05:29:40;6.30;99.90
9881;DHT22;4979;51.014;6.678;2023-12-20T05:32:05;6.30;99.90
9881;DHT22;4979;51.014;6.678;2023-12-20T05:34:31;6.20;99.90
9881;DHT22;4979;51.014;6.678;2023-12-20T05:36:57;6.10;99.90
9881;DHT22;4979;51.014;6.678;2023-12-20T05:39:23;6.30;99.90
9881;DHT22;4979;51.014;6.678;2023-12-20T05:41:48;6.20;99.90
9881;DHT22;4979;51.014;6.678;2023-12-20T05:44:14;6.20;99.90
9881;DHT22;4979;51.014;6.678;2023-12-20T05:46:40;6.30;99.90
9881;DHT22;4979;51.014;6.678;2023-12-20T05:49:06;6.20;99.90
9881;DHT22;4979;51.014;6.678;2023-12-20T05:51:31;6.30;99.90
9881;DHT22;4979;51.014;6.678;2023-12-20T05:53:57;6.30;99.90
9881;DHT22;4979;51.014;6.678;2023-12-20T05:56:22;6.40;99.90
9881;DHT22;4979;51.014;6.678;2023-12-20T05:58:48;6.40;99.90
9881;DHT22;4979;51.014;6.678;2023-12-20T06:01:16;6.30;99.90
9881;DHT22;4979;51.014;6.678;2023-12-20T06:03:42;6.30;99.90
9881;DHT22;4979;51.014;6.678;2023-12-20T06:06:09;6.30;99.90
9881;DHT22;4979;51.014;6.678;2023-12-20T06:08:34;6.30;99.90
9881;DHT22;4979;51.014;6.678;2023-12-20T06:11:00;6.40;99.90
9881;DHT22;4979;51.014;6.678;2023-12-20T06:13:25;6.40;99.90
9881;DHT22;4979;51.014;6.678;2023-12-20T06:15:53;6.30;99.90
9881;DHT22;4979;51.014;6.678;2023-12-20T06:18:19;6.50;99.90
9881;DHT22;4979;51.014;6.678;2023-12-20T06:20:45;6.50;99.90
9881;DHT22;4979;51.014;6.678;2023-12-20T06:23:10;6.50;99.90
9881;DHT22;4979;51.014;6.678;2023-12-20T06:25:36;6.50;99.90
9881;DHT22;4979;51.014;6.678;2023-12-20T06:28:01;6.40;99.90
9881;DHT22;4979;51.014;6.678;2023-12-20T06:30:27;6.50;99.90
9881;DHT22;4979;51.014;6.678;2023-12-20T06:32:53;6.50;99.90
9881;DHT22;4979;51.014;6.678;2023-12-20T06:35:19;6.60;99.90
9881;DHT22;4979;51.014;6.678;2023-12-20T06:37:45;6.60;99.90
9881;DHT22;4979;51.014;6.678;2023-12-20T06:40:11;6.60;99.90
9881;DHT22;4979;51.014;6.678;2023-12-20T06:42:37;6.40;99.90
9881;DHT22;4979;51.014;6.678;2023-12-20T06:45:03;6.60;99.90
9881;DHT22;4979;51.014;6.678;2023-12-20T06:47:29;6.50;99.90
9881;DHT22;4979;51.014;6.678;2023-12-20T06:49:54;6.50;99.90
9881;DHT22;4979;51.014;6.678;2023-12-20T06:52:20;6.50;99.90
9881;DHT22;4979;51.014;6.678;2023-12-20T06:54:45;6.50;99.90
9881;DHT22;4979;51.014;6.678;2023-12-20T06:57:11;6.50;99.90
9881;DHT22;4979;51.014;6.678;2023-12-20T06:59:40;6.60;99.90
9881;DHT22;4979;51.014;6.678;2023-12-20T07:02:06;6.60;99.90
9881;DHT22;4979;51.014;6.678;2023-12-20T07:04:32;6.60;99.90
9881;DHT22;4979;51.014;6.678;2023-12-20T07:06:57;6.50;99.90
9881;DHT22;4979;51.014;6.678;2023-12-20T07:09:26;6.50;99.90
9881;DHT22;4979;51.014;6.678;2023-12-20T07:11:52;6.50;99.90
9881;DHT22;4979;51.014;6.678;2023-12-20T07:14:17;6.60;99.90
9881;DHT22;4979;51.014;6.678;2023-12-20T07:16:43;6.50;99.90
9881;DHT22;4979;51.014;6.678;2023-12-20T07:19:09;6.60;99.90
9881;DHT22;4979;51.014;6.678;2023-12-20T07:21:34;6.50;99.90
9881;DHT22;4979;51.014;6.678;2023-12-20T07:24:00;6.60;99.90
9881;DHT22;4979;51.014;6.678;2023-12-20T07:26:25;6.50;99.90
9881;DHT22;4979;51.014;6.678;2023-12-20T07:28:51;6.60;99.90
9881;DHT22;4979;51.014;6.678;2023-12-20T07:31:16;6.50;99.90
9881;DHT22;4979;51.014;6.678;2023-12-20T07:33:42;6.60;99.90
9881;DHT22;4979;51.014;6.678;2023-12-20T07:36:07;6.50;99.90
9881;DHT22;4979;51.014;6.678;2023-12-20T07:38:33;6.50;99.90
9881;DHT22;4979;51.014;6.678;2023-12-20T07:40:59;6.60;99.90
9881;DHT22;4979;51.014;6.678;2023-12-20T07:43:25;6.60;99.90
9881;DHT22;4979;51.014;6.678;2023-12-20T07:45:50;6.50;99.90
9881;DHT22;4979;51.014;6.678;2023-12-20T07:48:16;6.50;99.90
9881;DHT22;4979;51.014;6.678;2023-12-20T07:50:41;6.60;99.90
9881;DHT22;4979;51.014;6.678;2023-12-20T07:53:07;6.50;99.90
9881;DHT22;4979;51.014;6.678;2023-12-20T07:55:33;6.60;99.90
9881;DHT22;4979;51.014;6.678;2023-12-20T07:57:59;6.60;99.90
9881;DHT22;4979;51.014;6.678;2023-12-20T08:00:25;6.50;99.90
9881;DHT22;4979;51.014;6.678;2023-12-20T08:02:51;6.50;99.90
9881;DHT22;4979;51.014;6.678;2023-12-20T08:05:16;6.50;99.90
9881;DHT22;4979;51.014;6.678;2023-12-20T08:07:42;6.40;99.90
9881;DHT22;4979;51.014;6.678;2023-12-20T08:10:07;6.50;99.90
9881;DHT22;4979;51.014;6.678;2023-12-20T08:12:33;6.40;99.90
9881;DHT22;4979;51.014;6.678;2023-12-20T08:14:59;6.50;99.90
9881;DHT22;4979;51.014;6.678;2023-12-20T08:17:25;6.50;99.90
9881;DHT22;4979;51.014;6.678;2023-12-20T08:19:51;6.40;99.90
9881;DHT22;4979;51.014;6.678;2023-12-20T08:22:16;6.30;99.90
9881;DHT22;4979;51.014;6.678;2023-12-20T08:24:42;6.40;99.90
9881;DHT22;4979;51.014;6.678;2023-12-20T08:27:08;6.40;99.90
9881;DHT22;4979;51.014;6.678;2023-12-20T08:29:35;6.40;99.90
9881;DHT22;4979;51.014;6.678;2023-12-20T08:32:00;6.30;99.90
9881;DHT22;4979;51.014;6.678;2023-12-20T08:34:26;6.40;99.90
9881;DHT22;4979;51.014;6.678;2023-12-20T08:36:51;6.50;99.90
9881;DHT22;4979;51.014;6.678;2023-12-20T08:39:17;6.50;99.90
9881;DHT22;4979;51.014;6.678;2023-12-20T08:41:43;6.60;99.90
9881;DHT22;4979;51.014;6.678;2023-12-20T08:44:09;6.50;99.90
9881;DHT22;4979;51.014;6.678;2023-12-20T08:46:35;6.70;99.90
9881;DHT22;4979;51.014;6.678;2023-12-20T08:49:01;6.50;99.90
9881;DHT22;4979;51.014;6.678;2023-12-20T08:51:27;6.50;99.90
9881;DHT22;4979;51.014;6.678;2023-12-20T08:53:53;6.60;99.90
9881;DHT22;4979;51.014;6.678;2023-12-20T08:56:19;6.60;99.90
9881;DHT22;4979;51.014;6.678;2023-12-20T08:58:46;6.70;99.90
9881;DHT22;4979;51.014;6.678;2023-12-20T09:01:13;6.60;99.90
9881;DHT22;4979;51.014;6.678;2023-12-20T09:03:39;6.50;99.90
9881;DHT22;4979;51.014;6.678;2023-12-20T09:06:05;6.70;99.90
9881;DHT22;4979;51.014;6.678;2023-12-20T09:08:31;6.60;99.90
9881;DHT22;4979;51.014;6.678;2023-12-20T09:10:56;6.70;99.90
9881;DHT22;4979;51.014;6.678;2023-12-20T09:13:22;8.80;99.90
9881;DHT22;4979;51.014;6.678;2023-12-20T09:15:56;6.60;99.90
9881;DHT22;4979;51.014;6.678;2023-12-20T09:18:22;6.70;99.90
9881;DHT22;4979;51.014;6.678;2023-12-20T09:20:47;6.60;99.90
9881;DHT22;4979;51.014;6.678;2023-12-20T09:23:13;6.70;99.90
9881;DHT22;4979;51.014;6.678;2023-12-20T09:25:38;6.80;99.90
9881;DHT22;4979;51.014;6.678;2023-12-20T09:28:04;8.50;99.90
9881;DHT22;4979;51.014;6.678;2023-12-20T09:30:30;6.70;99.90
9881;DHT22;4979;51.014;6.678;2023-12-20T09:32:57;6.80;99.90
9881;DHT22;4979;51.014;6.678;2023-12-20T09:35:23;6.80;99.90
9881;DHT22;4979;51.014;6.678;2023-12-20T09:37:49;6.80;99.90
9881;DHT22;4979;51.014;6.678;2023-12-20T09:40:18;6.80;99.90
9881;DHT22;4979;51.014;6.678;2023-12-20T09:42:58;6.70;99.90
9881;DHT22;4979;51.014;6.678;2023-12-20T09:45:24;6.80;99.90
9881;DHT22;4979;51.014;6.678;2023-12-20T09:47:51;6.80;99.90
9881;DHT22;4979;51.014;6.678;2023-12-20T09:50:19;6.80;99.90
9881;DHT22;4979;51.014;6.678;2023-12-20T09:52:47;6.80;99.90
9881;DHT22;4979;51.014;6.678;2023-12-20T09:55:15;6.80;99.90
9881;DHT22;4979;51.014;6.678;2023-12-20T09:57:42;6.90;99.90
9881;DHT22;4979;51.014;6.678;2023-12-20T10:00:08;6.90;99.90
9881;DHT22;4979;51.014;6.678;2023-12-20T10:02:34;6.90;99.90
9881;DHT22;4979;51.014;6.678;2023-12-20T10:05:02;7.00;99.90
9881;DHT22;4979;51.014;6.678;2023-12-20T10:07:28;6.90;99.90
9881;DHT22;4979;51.014;6.678;2023-12-20T10:09:54;7.10;99.90
9881;DHT22;4979;51.014;6.678;2023-12-20T10:12:21;7.10;99.90
9881;DHT22;4979;51.014;6.678;2023-12-20T10:14:46;7.10;99.90
9881;DHT22;4979;51.014;6.678;2023-12-20T10:17:12;7.20;99.90
9881;DHT22;4979;51.014;6.678;2023-12-20T10:19:37;7.10;99.90
9881;DHT22;4979;51.014;6.678;2023-12-20T10:22:06;7.10;99.90
9881;DHT22;4979;51.014;6.678;2023-12-20T10:24:32;7.20;99.90
9881;DHT22;4979;51.014;6.678;2023-12-20T10:27:04;7.10;99.90
9881;DHT22;4979;51.014;6.678;2023-12-20T10:29:34;7.20;99.90
9881;DHT22;4979;51.014;6.678;2023-12-20T10:32:26;7.20;99.90
9881;DHT22;4979;51.014;6.678;2023-12-20T10:34:54;7.20;99.90
9881;DHT22;4979;51.014;6.678;2023-12-20T10:37:20;7.10;99.90
9881;DHT22;4979;51.014;6.678;2023-12-20T10:39:50;7.20;99.90
9881;DHT22;4979;51.014;6.678;2023-12-20T10:42:18;7.30;99.90
9881;DHT22;4979;51.014;6.678;2023-12-20T10:44:46;7.20;99.90
9881;DHT22;4979;51.014;6.678;2023-12-20T10:47:13;7.20;99.90
9881;DHT22;4979;51.014;6.678;2023-12-20T10:49:39;7.20;99.90
9881;DHT22;4979;51.014;6.678;2023-12-20T10:52:06;7.20;99.90
9881;DHT22;4979;51.014;6.678;2023-12-20T10:54:33;7.20;99.90
9881;DHT22;4979;51.014;6.678;2023-12-20T10:56:59;7.20;99.90
9881;DHT22;4979;51.014;6.678;2023-12-20T10:59:26;7.20;99.90
9881;DHT22;4979;51.014;6.678;2023-12-20T11:01:54;7.20;99.90
9881;DHT22;4979;51.014;6.678;2023-12-20T11:04:31;7.20;99.90
9881;DHT22;4979;51.014;6.678;2023-12-20T11:07:32;7.20;99.90
9881;DHT22;4979;51.014;6.678;2023-12-20T11:10:03;7.10;99.90
9881;DHT22;4979;51.014;6.678;2023-12-20T11:12:51;7.20;99.90
9881;DHT22;4979;51.014;6.678;2023-12-20T11:15:18;7.20;99.90
9881;DHT22;4979;51.014;6.678;2023-12-20T11:17:45;7.30;99.90
9881;DHT22;4979;51.014;6.678;2023-12-20T11:20:14;7.30;99.90
9881;DHT22;4979;51.014;6.678;2023-12-20T11:22:54;7.40;99.90
9881;DHT22;4979;51.014;6.678;2023-12-20T11:25:20;7.30;99.90
9881;DHT22;4979;51.014;6.678;2023-12-20T11:28:06;7.30;99.90
9881;DHT22;4979;51.014;6.678;2023-12-20T11:30:53;7.40;99.90
9881;DHT22;4979;51.014;6.678;2023-12-20T11:33:30;7.40;99.90
9881;DHT22;4979;51.014;6.678;2023-12-20T11:35:56;7.50;99.90
9881;DHT22;4979;51.014;6.678;2023-12-20T11:38:23;7.50;99.90
9881;DHT22;4979;51.014;6.678;2023-12-20T11:40:49;7.50;99.90
9881;DHT22;4979;51.014;6.678;2023-12-20T11:43:35;7.50;99.90
9881;DHT22;4979;51.014;6.678;2023-12-20T11:46:10;7.50;99.90
9881;DHT22;4979;51.014;6.678;2023-12-20T11:48:38;7.40;99.90
9881;DHT22;4979;51.014;6.678;2023-12-20T11:51:13;7.40;99.90
9881;DHT22;4979;51.014;6.678;2023-12-20T11:53:40;7.40;99.90
9881;DHT22;4979;51.014;6.678;2023-12-20T11:56:06;7.40;99.90
9881;DHT22;4979;51.014;6.678;2023-12-20T11:58:33;7.40;99.90
9881;DHT22;4979;51.014;6.678;2023-12-20T12:00:59;7.30;99.90
9881;DHT22;4979;51.014;6.678;2023-12-20T12:03:24;7.30;99.90
9881;DHT22;4979;51.014;6.678;2023-12-20T12:05:50;7.40;99.90
9881;DHT22;4979;51.014;6.678;2023-12-20T12:08:17;7.40;99.90
9881;DHT22;4979;51.014;6.678;2023-12-20T12:10:43;7.40;99.90
9881;DHT22;4979;51.014;6.678;2023-12-20T12:13:09;7.40;99.90
9881;DHT22;4979;51.014;6.678;2023-12-20T12:15:36;7.40;99.90
9881;DHT22;4979;51.014;6.678;2023-12-20T12:18:02;7.40;99.90
9881;DHT22;4979;51.014;6.678;2023-12-20T12:20:27;7.40;99.90
9881;DHT22;4979;51.014;6.678;2023-12-20T12:23:01;7.40;99.90
9881;DHT22;4979;51.014;6.678;2023-12-20T12:25:29;7.40;99.90
9881;DHT22;4979;51.014;6.678;2023-12-20T12:27:56;7.40;99.90
9881;DHT22;4979;51.014;6.678;2023-12-20T12:30:21;7.50;99.90
9881;DHT22;4979;51.014;6.678;2023-12-20T12:32:47;7.50;99.90
9881;DHT22;4979;51.014;6.678;2023-12-20T12:35:14;7.50;99.90
9881;DHT22;4979;51.014;6.678;2023-12-20T12:37:40;7.50;99.90
9881;DHT22;4979;51.014;6.678;2023-12-20T12:40:10;7.50;99.90
9881;DHT22;4979;51.014;6.678;2023-12-20T12:42:40;7.50;99.90
9881;DHT22;4979;51.014;6.678;2023-12-20T12:45:07;7.60;99.90
9881;DHT22;4979;51.014;6.678;2023-12-20T12:47:36;7.60;99.90
9881;DHT22;4979;51.014;6.678;2023-12-20T12:50:02;7.50;99.90
9881;DHT22;4979;51.014;6.678;2023-12-20T12:52:27;7.50;99.90
9881;DHT22;4979;51.014;6.678;2023-12-20T12:54:53;7.60;99.90
9881;DHT22;4979;51.014;6.678;2023-12-20T12:57:19;7.60;99.90
9881;DHT22;4979;51.014;6.678;2023-12-20T12:59:45;7.60;99.90
9881;DHT22;4979;51.014;6.678;2023-12-20T13:02:14;7.60;99.90
9881;DHT22;4979;51.014;6.678;2023-12-20T13:04:40;7.60;99.90
9881;DHT22;4979;51.014;6.678;2023-12-20T13:07:06;7.60;99.90
9881;DHT22;4979;51.014;6.678;2023-12-20T13:09:32;7.60;99.90
9881;DHT22;4979;51.014;6.678;2023-12-20T13:11:58;7.60;99.90
9881;DHT22;4979;51.014;6.678;2023-12-20T13:14:24;7.60;99.90
9881;DHT22;4979;51.014;6.678;2023-12-20T13:16:50;7.70;99.90
9881;DHT22;4979;51.014;6.678;2023-12-20T13:19:15;7.70;99.90
9881;DHT22;4979;51.014;6.678;2023-12-20T13:21:41;7.70;99.90
9881;DHT22;4979;51.014;6.678;2023-12-20T13:24:06;7.60;99.90
9881;DHT22;4979;51.014;6.678;2023-12-20T13:26:32;7.60;99.90
9881;DHT22;4979;51.014;6.678;2023-12-20T13:28:58;7.70;99.90
9881;DHT22;4979;51.014;6.678;2023-12-20T13:31:24;7.60;99.90
9881;DHT22;4979;51.014;6.678;2023-12-20T13:33:49;7.60;99.90
9881;DHT22;4979;51.014;6.678;2023-12-20T13:36:15;7.60;99.90
9881;DHT22;4979;51.014;6.678;2023-12-20T13:38:40;7.70;99.90
9881;DHT22;4979;51.014;6.678;2023-12-20T13:41:06;7.50;99.90
9881;DHT22;4979;51.014;6.678;2023-12-20T13:43:32;7.60;99.90
9881;DHT22;4979;51.014;6.678;2023-12-20T13:45:58;7.50;99.90
9881;DHT22;4979;51.014;6.678;2023-12-20T13:48:24;7.50;99.90
9881;DHT22;4979;51.014;6.678;2023-12-20T13:50:50;7.60;99.90
9881;DHT22;4979;51.014;6.678;2023-12-20T13:53:15;7.60;99.90
9881;DHT22;4979;51.014;6.678;2023-12-20T13:55:41;7.60;99.90
9881;DHT22;4979;51.014;6.678;2023-12-20T13:58:07;7.40;99.90
9881;DHT22;4979;51.014;6.678;2023-12-20T14:00:32;7.50;99.90
9881;DHT22;4979;51.014;6.678;2023-12-20T14:02:58;7.50;99.90
9881;DHT22;4979;51.014;6.678;2023-12-20T14:05:24;7.60;99.90
9881;DHT22;4979;51.014;6.678;2023-12-20T14:07:49;7.60;99.90
9881;DHT22;4979;51.014;6.678;2023-12-20T14:10:15;7.60;99.90
9881;DHT22;4979;51.014;6.678;2023-12-20T14:12:41;7.50;99.90
9881;DHT22;4979;51.014;6.678;2023-12-20T14:15:07;7.70;99.90
9881;DHT22;4979;51.014;6.678;2023-12-20T14:17:37;7.60;99.90
9881;DHT22;4979;51.014;6.678;2023-12-20T14:20:05;7.60;99.90
9881;DHT22;4979;51.014;6.678;2023-12-20T14:22:32;7.70;99.90
9881;DHT22;4979;51.014;6.678;2023-12-20T14:24:57;7.70;99.90
9881;DHT22;4979;51.014;6.678;2023-12-20T14:27:23;7.70;99.90
9881;DHT22;4979;51.014;6.678;2023-12-20T14:29:50;7.70;99.90
9881;DHT22;4979;51.014;6.678;2023-12-20T14:32:15;7.70;99.90
9881;DHT22;4979;51.014;6.678;2023-12-20T14:34:41;7.80;99.90
9881;DHT22;4979;51.014;6.678;2023-12-20T14:37:07;6.70;99.90
9881;DHT22;4979;51.014;6.678;2023-12-20T14:39:32;7.90;99.90
9881;DHT22;4979;51.014;6.678;2023-12-20T14:41:58;7.80;99.90
9881;DHT22;4979;51.014;6.678;2023-12-20T14:44:24;7.90;99.90
9881;DHT22;4979;51.014;6.678;2023-12-20T14:46:50;7.80;99.90
9881;DHT22;4979;51.014;6.678;2023-12-20T14:49:16;7.90;99.90
9881;DHT22;4979;51.014;6.678;2023-12-20T14:51:44;7.80;99.90
9881;DHT22;4979;51.014;6.678;2023-12-20T14:54:10;7.90;99.90
9881;DHT22;4979;51.014;6.678;2023-12-20T14:56:35;7.80;99.90
9881;DHT22;4979;51.014;6.678;2023-12-20T14:59:01;7.80;99.90
9881;DHT22;4979;51.014;6.678;2023-12-20T15:01:26;7.80;99.90
9881;DHT22;4979;51.014;6.678;2023-12-20T15:03:52;7.80;99.90
9881;DHT22;4979;51.014;6.678;2023-12-20T15:06:18;7.90;99.90
9881;DHT22;4979;51.014;6.678;2023-12-20T15:08:45;7.80;99.90
9881;DHT22;4979;51.014;6.678;2023-12-20T15:11:11;7.70;99.90
9881;DHT22;4979;51.014;6.678;2023-12-20T15:13:37;7.80;99.90
9881;DHT22;4979;51.014;6.678;2023-12-20T15:16:03;7.80;99.90
9881;DHT22;4979;51.014;6.678;2023-12-20T15:18:30;7.70;99.90
9881;DHT22;4979;51.014;6.678;2023-12-20T15:20:57;7.80;99.90
9881;DHT22;4979;51.014;6.678;2023-12-20T15:23:22;10.10;99.90
9881;DHT22;4979;51.014;6.678;2023-12-20T15:25:51;7.60;99.90
9881;DHT22;4979;51.014;6.678;2023-12-20T15:28:17;7.60;99.90
9881;DHT22;4979;51.014;6.678;2023-12-20T15:30:43;7.70;99.90
9881;DHT22;4979;51.014;6.678;2023-12-20T15:33:08;7.60;99.90
9881;DHT22;4979;51.014;6.678;2023-12-20T15:35:34;7.60;99.90
9881;DHT22;4979;51.014;6.678;2023-12-20T15:37:59;7.60;99.90
9881;DHT22;4979;51.014;6.678;2023-12-20T15:40:25;7.70;99.90
9881;DHT22;4979;51.014;6.678;2023-12-20T15:42:50;7.50;99.90
9881;DHT22;4979;51.014;6.678;2023-12-20T15:45:16;7.70;99.90
9881;DHT22;4979;51.014;6.678;2023-12-20T15:47:41;7.60;99.90
9881;DHT22;4979;51.014;6.678;2023-12-20T15:50:07;7.50;99.90
9881;DHT22;4979;51.014;6.678;2023-12-20T15:52:33;7.50;99.90
9881;DHT22;4979;51.014;6.678;2023-12-20T15:54:59;7.70;99.90
9881;DHT22;4979;51.014;6.678;2023-12-20T15:57:24;7.70;99.90
9881;DHT22;4979;51.014;6.678;2023-12-20T15:59:50;7.60;99.90
9881;DHT22;4979;51.014;6.678;2023-12-20T16:02:16;7.60;99.90
9881;DHT22;4979;51.014;6.678;2023-12-20T16:04:42;7.70;99.90
9881;DHT22;4979;51.014;6.678;2023-12-20T16:07:08;7.50;99.90
9881;DHT22;4979;51.014;6.678;2023-12-20T16:09:33;7.60;99.90
9881;DHT22;4979;51.014;6.678;2023-12-20T16:11:59;7.50;99.90